Sabine — UALB — position and weather

sailwx.info

Track history (hours):
 
Tides and Currents Weather Stations Pressure Air Temp Water Temp Dewpoint Dewpoint Depression Visibility Wind Speed Wind Dir Waves Ship Positions

Sabine

Last reported at 2017-Oct-16 07:34 UTC. Time now 2017-Nov-23 15:10 UTC.
Position N 45°27' E 036°42'.
Warning: this ship's position is 38 days out of date.

Length 114 m; draft 3 m.

Type: Cargo ship. MMSI: 273320100.

Date/timePositionNaut miles runAvg speedWind from/ knotsBaromVisibWave heightAir tempDewpointWater temp
2017-Oct-16 07:34N 45°27' E 036°42'0 6.5
2017-Oct-16 07:30N 45°27' E 036°42'3 6.6
2017-Oct-16 07:00N 45°24' E 036°41'3 6.0
2017-Oct-16 06:30N 45°21' E 036°39'3 6.2
2017-Oct-16 06:00N 45°20' E 036°35'6 6.4
2017-Oct-16 05:07N 45°16' E 036°29'1 6.0
2017-Oct-16 04:59N 45°16' E 036°28'131 2.7
2017-Oct-14 04:53N 43°45' E 038°41'4 8.9
2017-Oct-14 04:28N 43°43' E 038°45'  
Track history (hours):
 
Tides and Currents Weather Stations Pressure Air Temp Water Temp Dewpoint Dewpoint Depression Visibility Wind Speed Wind Dir Waves Ship Positions

Sabine

Last reported at 2017-Oct-16 07:34 UTC. Time now 2017-Nov-23 15:10 UTC.
Position N 45°27' E 036°42'.
Warning: this ship's position is 38 days out of date.

Length 114 m; draft 3 m.

Type: Cargo ship. MMSI: 273320100.

Date/timePositionNaut miles runAvg speedWind from/ knotsBaromVisibWave heightAir tempDewpointWater temp
2017-Oct-16 07:34N 45°27' E 036°42'0 6.5
2017-Oct-16 07:30N 45°27' E 036°42'3 6.6
2017-Oct-16 07:00N 45°24' E 036°41'3 6.0
2017-Oct-16 06:30N 45°21' E 036°39'3 6.2
2017-Oct-16 06:00N 45°20' E 036°35'6 6.4
2017-Oct-16 05:07N 45°16' E 036°29'1 6.0
2017-Oct-16 04:59N 45°16' E 036°28'131 2.7
2017-Oct-14 04:53N 43°45' E 038°41'4 8.9
2017-Oct-14 04:28N 43°43' E 038°45'  

Dump ship's entire track history